createdAt,value
2022-08-19T00:02:04.192Z,1.75
2022-08-19T00:04:34.610Z,1.80
2022-08-19T00:07:01.491Z,2.67
2022-08-19T00:09:28.835Z,2.10
2022-08-19T00:11:56.584Z,2.30
2022-08-19T00:14:25.744Z,1.90
2022-08-19T00:16:55.502Z,1.83
2022-08-19T00:19:24.486Z,2.05
2022-08-19T00:21:52.288Z,2.20
2022-08-19T00:24:19.898Z,1.75
2022-08-19T00:26:46.995Z,1.75
2022-08-19T00:29:16.832Z,1.70
2022-08-19T00:31:44.592Z,2.10
2022-08-19T00:34:13.069Z,1.77
2022-08-19T00:36:41.258Z,2.20
2022-08-19T00:39:08.778Z,1.90
2022-08-19T00:41:35.826Z,1.77
2022-08-19T00:44:10.922Z,1.80
2022-08-19T00:46:40.123Z,1.77
2022-08-19T00:49:26.205Z,1.98
2022-08-19T00:51:57.189Z,2.10
2022-08-19T00:54:24.248Z,1.83
2022-08-19T00:56:58.467Z,1.95
2022-08-19T01:00:00.751Z,1.85
2022-08-19T01:02:13.437Z,1.85
2022-08-19T01:04:41.231Z,1.40
2022-08-19T01:07:08.599Z,1.92
2022-08-19T01:09:41.786Z,1.70
2022-08-19T01:12:09.801Z,1.52
2022-08-19T01:14:39.759Z,1.30
2022-08-19T01:17:09.037Z,1.52
2022-08-19T01:19:43.941Z,1.40
2022-08-19T01:22:35.889Z,1.50
2022-08-19T01:25:03.621Z,1.50
2022-08-19T01:27:43.708Z,1.77
2022-08-19T01:30:14.640Z,1.45
2022-08-19T01:32:41.696Z,1.35
2022-08-19T01:35:09.264Z,1.20
2022-08-19T01:37:52.374Z,1.45
2022-08-19T01:40:21.290Z,1.38
2022-08-19T01:42:50.081Z,1.60
2022-08-19T01:45:18.630Z,1.40
2022-08-19T01:47:51.594Z,1.70
2022-08-19T01:50:28.637Z,1.45
2022-08-19T01:53:02.254Z,2.00
2022-08-19T01:55:34.240Z,1.80
2022-08-19T01:58:04.216Z,1.83
2022-08-19T02:00:33.015Z,2.15
2022-08-19T02:03:00.161Z,1.83
2022-08-19T02:05:26.885Z,2.25
2022-08-19T02:07:53.657Z,2.05
2022-08-19T02:10:22.906Z,1.77
2022-08-19T02:12:50.605Z,1.90
2022-08-19T02:15:20.412Z,2.10
2022-08-19T02:17:47.521Z,1.90
2022-08-19T02:20:14.713Z,1.70
2022-08-19T02:22:43.345Z,1.73
2022-08-19T02:25:15.303Z,2.10
2022-08-19T02:27:42.919Z,2.33
2022-08-19T02:30:14.387Z,1.85
2022-08-19T02:32:44.523Z,1.80
2022-08-19T02:35:13.523Z,1.70
2022-08-19T02:37:59.929Z,2.10
2022-08-19T02:40:28.070Z,2.00
2022-08-19T02:42:55.275Z,2.20
2022-08-19T02:45:22.362Z,1.95
2022-08-19T02:47:49.093Z,2.30
2022-08-19T02:50:15.783Z,2.67
2022-08-19T02:52:42.523Z,2.10
2022-08-19T02:55:10.372Z,2.53
2022-08-19T02:57:37.094Z,2.38
2022-08-19T03:00:07.516Z,2.40
2022-08-19T03:02:34.308Z,2.45
2022-08-19T03:05:01.017Z,2.50
2022-08-19T03:07:27.691Z,2.35
2022-08-19T03:09:54.403Z,3.03
2022-08-19T03:12:21.177Z,2.25
2022-08-19T03:14:51.937Z,2.53
2022-08-19T03:17:18.663Z,2.30
2022-08-19T03:19:45.703Z,2.72
2022-08-19T03:22:12.505Z,2.63
2022-08-19T03:24:39.885Z,3.00
2022-08-19T03:27:06.589Z,3.00
2022-08-19T03:29:33.772Z,2.90
2022-08-19T03:32:09.951Z,2.92
2022-08-19T03:34:56.729Z,2.90
2022-08-19T03:37:24.585Z,2.85
2022-08-19T03:39:52.677Z,3.38
2022-08-19T03:42:32.880Z,2.83
2022-08-19T03:45:06.261Z,3.13
2022-08-19T03:47:33.296Z,3.00
2022-08-19T03:50:00.091Z,3.15
2022-08-19T03:52:26.815Z,2.88
2022-08-19T03:54:53.638Z,3.45
2022-08-19T03:57:20.359Z,2.90
2022-08-19T03:59:47.071Z,2.50
2022-08-19T04:02:14.310Z,3.03
2022-08-19T04:04:44.259Z,2.75
2022-08-19T04:07:13.846Z,3.38
2022-08-19T04:09:40.593Z,3.53
2022-08-19T04:12:07.705Z,3.00
2022-08-19T04:14:35.324Z,3.42
2022-08-19T04:17:07.407Z,2.95
2022-08-19T04:19:36.256Z,3.88
2022-08-19T04:22:03.627Z,3.70
2022-08-19T04:24:30.562Z,3.13
2022-08-19T04:26:57.540Z,3.38
2022-08-19T04:29:27.779Z,3.67
2022-08-19T04:31:56.659Z,5.22
2022-08-19T04:34:26.522Z,4.70
2022-08-19T04:36:54.780Z,4.00
2022-08-19T04:42:08.845Z,4.43
2022-08-19T04:44:44.040Z,4.65
2022-08-19T04:47:13.143Z,4.57
2022-08-19T04:49:41.062Z,4.57
2022-08-19T04:52:09.442Z,4.65
2022-08-19T04:54:37.235Z,4.47
2022-08-19T04:57:07.685Z,4.57
2022-08-19T04:59:35.202Z,4.90
2022-08-19T05:02:02.191Z,4.63
2022-08-19T05:04:32.946Z,3.83
2022-08-19T05:07:01.961Z,4.30
2022-08-19T05:09:39.053Z,4.43
2022-08-19T05:12:16.711Z,4.22
2022-08-19T05:14:46.479Z,4.22
2022-08-19T05:17:31.208Z,5.15
2022-08-19T05:20:18.303Z,5.00
2022-08-19T05:22:47.304Z,5.13
2022-08-19T05:25:19.484Z,5.95
2022-08-19T05:27:46.471Z,6.05
2022-08-19T05:30:13.585Z,5.57
2022-08-19T05:32:40.973Z,5.43
2022-08-19T05:35:08.431Z,5.93
2022-08-19T05:37:35.180Z,6.73
2022-08-19T05:40:02.409Z,6.63
2022-08-19T05:42:29.485Z,6.93
2022-08-19T05:44:57.639Z,6.72
2022-08-19T05:49:53.213Z,8.18
2022-08-19T05:52:25.543Z,10.43
2022-08-19T05:54:55.978Z,13.60
2022-08-19T05:57:23.430Z,12.15
2022-08-19T05:59:56.748Z,13.73
2022-08-19T06:02:26.617Z,16.73
2022-08-19T06:07:20.541Z,21.30
2022-08-19T06:09:54.341Z,23.60
2022-08-19T06:12:31.603Z,24.92
2022-08-19T06:15:01.582Z,24.52
2022-08-19T06:17:31.473Z,25.17
2022-08-19T06:19:59.479Z,25.85
2022-08-19T06:22:27.038Z,27.58
2022-08-19T06:24:56.490Z,29.30
2022-08-19T06:27:23.845Z,30.08
2022-08-19T06:29:50.909Z,27.05
2022-08-19T06:32:19.621Z,29.90
2022-08-19T06:34:46.447Z,29.80
2022-08-19T06:37:13.782Z,31.90
2022-08-19T06:39:42.435Z,35.47
2022-08-19T06:42:12.598Z,32.50
2022-08-19T06:44:43.045Z,33.53
2022-08-19T06:47:14.582Z,31.88
2022-08-19T06:49:42.934Z,34.53
2022-08-19T06:52:13.722Z,37.15
2022-08-19T06:54:56.618Z,37.17
2022-08-19T06:57:27.805Z,39.30
2022-08-19T06:59:56.105Z,37.05
2022-08-19T07:04:54.723Z,39.08
2022-08-19T07:07:23.169Z,42.05
2022-08-19T07:12:30.391Z,43.83
2022-08-19T07:14:58.860Z,43.63
2022-08-19T07:17:26.770Z,45.28
2022-08-19T07:19:54.795Z,44.85
2022-08-19T07:22:24.137Z,45.53
2022-08-19T07:24:54.653Z,45.22
2022-08-19T07:27:25.192Z,45.03
2022-08-19T07:29:55.903Z,44.80
2022-08-19T07:32:23.200Z,44.58
2022-08-19T07:34:51.068Z,44.22
2022-08-19T07:37:18.048Z,45.33
2022-08-19T07:39:44.872Z,44.58
2022-08-19T07:42:13.345Z,43.08
2022-08-19T07:47:47.816Z,41.58
2022-08-19T07:49:59.492Z,41.92
2022-08-19T07:52:26.300Z,42.90
2022-08-19T07:54:53.089Z,41.35
2022-08-19T07:57:20.844Z,41.10
2022-08-19T07:59:47.584Z,40.70
2022-08-19T08:02:14.312Z,39.72
2022-08-19T08:04:59.824Z,39.35
2022-08-19T08:07:46.462Z,40.15
2022-08-19T08:10:21.363Z,38.92
2022-08-19T08:13:01.850Z,38.83
2022-08-19T08:15:42.209Z,33.47
2022-08-19T08:18:10.538Z,35.97
2022-08-19T08:20:37.290Z,35.05
2022-08-19T08:23:22.742Z,38.83
2022-08-19T08:25:50.040Z,34.58
2022-08-19T08:28:18.332Z,39.60
2022-08-19T08:35:43.247Z,36.78
2022-08-19T08:38:09.931Z,36.85
2022-08-19T08:40:42.503Z,36.60
2022-08-19T08:43:33.430Z,33.20
2022-08-19T08:46:14.768Z,34.08
2022-08-19T08:49:34.473Z,34.85
2022-08-19T08:52:08.194Z,30.98
2022-08-19T08:54:48.878Z,33.20
2022-08-19T08:57:33.725Z,32.92
2022-08-19T09:00:15.690Z,34.08
2022-08-19T09:02:43.486Z,30.20
2022-08-19T09:05:16.774Z,33.40
2022-08-19T09:08:09.697Z,32.28
2022-08-19T09:10:45.909Z,34.90
2022-08-19T09:13:50.140Z,35.22
2022-08-19T09:16:27.938Z,33.22
2022-08-19T09:19:01.690Z,32.40
2022-08-19T09:21:30.374Z,33.97
2022-08-19T09:24:00.087Z,34.25
2022-08-19T09:26:47.154Z,34.55
2022-08-19T09:29:14.255Z,31.17
2022-08-19T09:31:41.207Z,30.52
2022-08-19T09:34:07.962Z,27.95
2022-08-19T09:36:54.831Z,27.95
2022-08-19T09:39:22.269Z,26.40
2022-08-19T09:41:50.907Z,26.48
2022-08-19T09:44:18.833Z,26.90
2022-08-19T09:46:47.949Z,25.83
2022-08-19T09:49:15.821Z,25.52
2022-08-19T09:51:50.819Z,21.92
2022-08-19T09:54:19.222Z,19.27
2022-08-19T09:56:51.419Z,21.83
2022-08-19T09:59:20.429Z,19.90
2022-08-19T10:01:47.348Z,20.10
2022-08-19T10:04:20.517Z,23.10
2022-08-19T10:06:51.811Z,21.38
2022-08-19T10:09:34.075Z,23.50
2022-08-19T10:12:05.051Z,24.27
2022-08-19T10:14:33.580Z,22.92
2022-08-19T10:17:04.726Z,24.42
2022-08-19T10:19:55.165Z,23.25
2022-08-19T10:22:25.695Z,21.92
2022-08-19T10:24:53.959Z,26.08
2022-08-19T10:27:20.773Z,24.70
2022-08-19T10:29:48.477Z,23.20
2022-08-19T10:32:15.382Z,24.55
2022-08-19T10:34:48.881Z,24.10
2022-08-19T10:37:23.947Z,22.67
2022-08-19T10:39:56.305Z,23.92
2022-08-19T10:42:23.284Z,22.85
2022-08-19T10:44:51.861Z,23.88
2022-08-19T10:47:25.993Z,21.35
2022-08-19T10:50:16.667Z,24.08
2022-08-19T10:52:49.466Z,27.02
2022-08-19T10:55:39.110Z,22.73
2022-08-19T10:58:14.177Z,26.48
2022-08-19T11:00:41.645Z,25.23
2022-08-19T11:03:09.534Z,25.30
2022-08-19T11:05:40.429Z,27.42
2022-08-19T11:08:17.659Z,22.70
2022-08-19T11:10:50.645Z,24.20
2022-08-19T11:13:17.516Z,24.05
2022-08-19T11:15:45.016Z,21.50
2022-08-19T11:18:13.238Z,23.93
2022-08-19T11:20:40.273Z,24.80
2022-08-19T11:23:07.432Z,24.30
2022-08-19T11:25:35.492Z,23.42
2022-08-19T11:28:02.219Z,27.23
2022-08-19T11:30:28.978Z,28.98
2022-08-19T11:32:55.672Z,23.23
2022-08-19T11:35:24.231Z,25.80
2022-08-19T11:37:51.105Z,25.33
2022-08-19T11:40:19.082Z,26.98
2022-08-19T11:42:58.034Z,26.42
2022-08-19T11:45:27.588Z,28.77
2022-08-19T11:47:56.886Z,24.88
2022-08-19T11:50:26.001Z,26.33
2022-08-19T11:52:57.365Z,23.98
2022-08-19T11:55:24.789Z,35.83
2022-08-19T11:57:51.506Z,22.57
2022-08-19T12:00:18.552Z,24.42
2022-08-19T12:02:45.433Z,20.48
2022-08-19T12:05:13.258Z,23.13
2022-08-19T12:07:41.480Z,22.08
2022-08-19T12:10:09.187Z,22.40
2022-08-19T12:12:41.359Z,27.10
2022-08-19T12:15:08.780Z,31.20
2022-08-19T12:17:35.515Z,30.37
2022-08-19T12:20:02.368Z,27.58
2022-08-19T12:22:29.094Z,25.63
2022-08-19T12:24:55.920Z,21.27
2022-08-19T12:27:32.373Z,23.70
2022-08-19T12:30:10.194Z,24.48
2022-08-19T12:32:37.776Z,21.88
2022-08-19T12:35:05.245Z,22.95
2022-08-19T12:37:33.175Z,24.50
2022-08-19T12:40:00.458Z,25.77
2022-08-19T12:42:27.733Z,28.02
2022-08-19T12:44:54.629Z,25.60
2022-08-19T12:47:21.986Z,23.23
2022-08-19T12:49:54.712Z,25.10
2022-08-19T12:52:24.493Z,26.73
2022-08-19T12:54:53.917Z,26.13
2022-08-19T12:57:33.015Z,26.45
2022-08-19T13:00:09.976Z,27.85
2022-08-19T13:02:38.875Z,27.88
2022-08-19T13:05:09.249Z,27.90
2022-08-19T13:07:36.649Z,27.33
2022-08-19T13:10:05.009Z,26.85
2022-08-19T13:12:34.052Z,27.13
2022-08-19T13:15:00.865Z,28.10
2022-08-19T13:17:33.080Z,28.60
2022-08-19T13:20:04.196Z,28.60
2022-08-19T13:22:34.140Z,27.55
2022-08-19T13:25:01.030Z,27.52
2022-08-19T13:27:27.793Z,26.73
2022-08-19T13:30:13.221Z,22.60
2022-08-19T13:32:58.691Z,23.88
2022-08-19T13:35:25.429Z,23.65
2022-08-19T13:37:52.801Z,19.95
2022-08-19T13:40:24.732Z,19.53
2022-08-19T13:42:54.399Z,20.48
2022-08-19T13:45:25.316Z,18.45
2022-08-19T13:47:59.226Z,16.67
2022-08-19T13:50:32.172Z,15.30
2022-08-19T13:52:59.261Z,17.33
2022-08-19T13:55:26.769Z,15.57
2022-08-19T13:57:55.994Z,15.02
2022-08-19T14:00:27.593Z,14.82
2022-08-19T14:02:56.690Z,15.35
2022-08-19T14:05:24.584Z,15.80
2022-08-19T14:07:51.506Z,15.27
2022-08-19T14:10:19.740Z,17.00
2022-08-19T14:15:13.644Z,14.75
2022-08-19T14:17:42.702Z,14.82
2022-08-19T14:20:18.370Z,14.48
2022-08-19T14:22:46.978Z,12.77
2022-08-19T14:25:20.225Z,13.60
2022-08-19T14:27:47.869Z,13.38
2022-08-19T14:30:23.030Z,14.18
2022-08-19T14:32:49.793Z,11.85
2022-08-19T14:35:17.515Z,11.18
2022-08-19T14:37:46.403Z,11.00
2022-08-19T14:40:18.890Z,10.30
2022-08-19T14:42:45.670Z,9.68
2022-08-19T14:45:13.116Z,8.40
2022-08-19T14:47:46.915Z,9.07
2022-08-19T14:50:17.830Z,8.43
2022-08-19T14:52:48.805Z,9.00
2022-08-19T14:55:18.157Z,8.57
2022-08-19T14:57:48.856Z,8.70
2022-08-19T15:00:16.195Z,8.77
2022-08-19T15:02:45.210Z,8.73
2022-08-19T15:05:12.200Z,8.32
2022-08-19T15:07:39.285Z,9.60
2022-08-19T15:10:10.603Z,8.45
2022-08-19T15:12:39.481Z,9.18
2022-08-19T15:15:13.684Z,9.05
2022-08-19T15:17:54.849Z,6.95
2022-08-19T15:20:25.190Z,7.30
2022-08-19T15:22:52.122Z,5.93
2022-08-19T15:25:20.117Z,5.95
2022-08-19T15:27:47.772Z,6.03
2022-08-19T15:30:22.332Z,6.38
2022-08-19T15:32:53.475Z,5.35
2022-08-19T15:35:21.250Z,4.75
2022-08-19T15:37:52.467Z,4.75
2022-08-19T15:40:20.852Z,5.20
2022-08-19T15:42:49.866Z,4.20
2022-08-19T15:45:19.807Z,4.28
2022-08-19T15:47:49.017Z,3.58
2022-08-19T15:50:21.105Z,3.78
2022-08-19T15:52:50.003Z,4.00
2022-08-19T15:55:33.649Z,3.80
2022-08-19T15:58:28.399Z,3.20
2022-08-19T16:01:23.551Z,3.30
2022-08-19T16:04:11.333Z,3.20
2022-08-19T16:06:47.715Z,3.00
2022-08-19T16:09:16.753Z,3.05
2022-08-19T16:11:46.430Z,3.30
2022-08-19T16:14:16.152Z,3.20
2022-08-19T16:16:46.775Z,3.38
2022-08-19T16:19:16.744Z,3.67
2022-08-19T16:21:49.119Z,3.55
2022-08-19T16:24:18.308Z,3.95
2022-08-19T16:26:46.188Z,4.28
2022-08-19T16:29:13.582Z,3.47
2022-08-19T16:31:44.880Z,5.70
2022-08-19T16:34:13.078Z,4.38
2022-08-19T16:36:43.422Z,4.25
2022-08-19T16:39:12.090Z,6.43
2022-08-19T16:41:40.281Z,6.18
2022-08-19T16:44:09.721Z,5.63
2022-08-19T16:46:37.316Z,6.28
2022-08-19T16:49:05.347Z,4.93
2022-08-19T16:51:33.696Z,4.55
2022-08-19T16:56:28.987Z,5.63
2022-08-19T16:58:56.322Z,5.78
2022-08-19T17:01:23.100Z,5.23
2022-08-19T17:03:52.025Z,6.03
2022-08-19T17:06:22.416Z,5.68
2022-08-19T17:08:50.781Z,6.65
2022-08-19T17:11:19.336Z,7.38
2022-08-19T17:13:50.809Z,10.88
2022-08-19T17:16:19.788Z,8.82
2022-08-19T17:18:46.528Z,8.43
2022-08-19T17:21:13.484Z,9.65
2022-08-19T17:23:43.595Z,10.18
2022-08-19T17:26:18.149Z,8.40
2022-08-19T17:28:51.013Z,8.25
2022-08-19T17:31:21.103Z,7.32
2022-08-19T17:33:48.506Z,6.65
2022-08-19T17:36:23.396Z,6.22
2022-08-19T17:38:52.829Z,6.28
2022-08-19T17:41:19.605Z,6.05
2022-08-19T17:43:46.446Z,4.90
2022-08-19T17:46:18.704Z,5.20
2022-08-19T17:48:52.121Z,5.53
2022-08-19T17:51:40.392Z,4.75
2022-08-19T17:54:11.167Z,5.50
2022-08-19T17:56:38.162Z,4.13
2022-08-19T17:59:06.251Z,5.07
2022-08-19T18:01:53.200Z,4.72
2022-08-19T18:04:21.321Z,4.82
2022-08-19T18:06:53.143Z,4.15
2022-08-19T18:09:24.034Z,4.30
2022-08-19T18:11:53.039Z,3.60
2022-08-19T18:14:32.051Z,3.28
2022-08-19T18:17:06.108Z,3.03
2022-08-19T18:19:42.226Z,2.55
2022-08-19T18:22:22.389Z,2.67
2022-08-19T18:24:49.208Z,2.45
2022-08-19T18:27:15.968Z,2.13
2022-08-19T18:29:43.396Z,2.05
2022-08-19T18:32:13.512Z,1.77
2022-08-19T18:34:45.900Z,1.85
2022-08-19T18:37:12.898Z,1.90
2022-08-19T18:39:58.244Z,1.70
2022-08-19T18:42:43.964Z,1.65
2022-08-19T18:45:31.523Z,1.77
2022-08-19T18:48:25.753Z,76.75
2022-08-19T18:50:56.105Z,52.42
2022-08-19T18:55:53.814Z,12.50
2022-08-19T18:58:25.904Z,8.07
2022-08-19T19:00:56.909Z,2.20
2022-08-19T19:03:24.980Z,2.00
2022-08-19T19:05:52.758Z,2.95
2022-08-19T19:08:19.797Z,3.25
2022-08-19T19:10:47.687Z,2.15
2022-08-19T19:13:17.768Z,1.90
2022-08-19T19:15:44.648Z,3.80
2022-08-19T19:18:13.382Z,5.20
2022-08-19T19:20:43.081Z,3.50
2022-08-19T19:23:09.824Z,2.60
2022-08-19T19:25:44.817Z,2.28
2022-08-19T19:28:18.598Z,2.28
2022-08-19T19:30:45.314Z,2.50
2022-08-19T19:33:12.241Z,2.22
2022-08-19T19:35:40.975Z,2.60
2022-08-19T19:38:12.531Z,2.42
2022-08-19T19:40:39.250Z,2.40
2022-08-19T19:43:06.433Z,2.60
2022-08-19T19:45:33.531Z,2.38
2022-08-19T19:48:00.647Z,2.85
2022-08-19T19:50:30.243Z,2.50
2022-08-19T19:52:57.831Z,2.70
2022-08-19T19:55:26.488Z,2.47
2022-08-19T19:57:54.159Z,2.70
2022-08-19T20:00:21.910Z,2.45
2022-08-19T20:02:50.704Z,2.60
2022-08-19T20:05:21.433Z,3.00
2022-08-19T20:08:08.575Z,2.67
2022-08-19T20:10:35.466Z,2.95
2022-08-19T20:13:03.578Z,2.60
2022-08-19T20:15:32.188Z,3.00
2022-08-19T20:18:00.871Z,3.40
2022-08-19T20:20:28.062Z,3.10
2022-08-19T20:22:55.131Z,3.10
2022-08-19T20:25:22.463Z,3.42
2022-08-19T20:27:49.812Z,3.22
2022-08-19T20:30:19.872Z,3.60
2022-08-19T20:32:48.213Z,3.60
2022-08-19T20:40:13.885Z,3.88
2022-08-19T20:42:42.797Z,4.75
2022-08-19T20:45:21.594Z,4.55
2022-08-19T20:47:59.869Z,5.60
2022-08-19T20:50:30.120Z,5.20
2022-08-19T20:52:57.587Z,5.25
2022-08-19T20:55:25.290Z,5.57
2022-08-19T20:57:52.119Z,6.00
2022-08-19T21:00:19.233Z,5.32
2022-08-19T21:02:46.932Z,5.15
2022-08-19T21:05:14.792Z,5.80
2022-08-19T21:07:42.595Z,6.07
2022-08-19T21:10:09.387Z,6.30
2022-08-19T21:12:36.307Z,6.53
2022-08-19T21:15:03.675Z,6.47
2022-08-19T21:17:30.373Z,6.18
2022-08-19T21:19:57.138Z,6.25
2022-08-19T21:22:23.902Z,6.07
2022-08-19T21:24:50.741Z,6.05
2022-08-19T21:27:17.449Z,9.93
2022-08-19T21:29:44.183Z,8.30
2022-08-19T21:32:14.237Z,7.63
2022-08-19T21:34:46.290Z,7.18
2022-08-19T21:37:24.832Z,7.30
2022-08-19T21:39:52.841Z,7.22
2022-08-19T21:42:19.738Z,6.77
2022-08-19T21:44:46.457Z,5.85
2022-08-19T21:47:13.265Z,6.18
2022-08-19T21:49:40.108Z,6.68
2022-08-19T21:52:08.173Z,7.55
2022-08-19T21:54:37.703Z,7.80
2022-08-19T21:57:10.693Z,6.97
2022-08-19T21:59:41.124Z,6.88
2022-08-19T22:02:20.099Z,5.68
2022-08-19T22:04:48.622Z,6.40
2022-08-19T22:07:15.817Z,6.78
2022-08-19T22:09:44.290Z,7.22
2022-08-19T22:12:30.285Z,7.20
2022-08-19T22:14:57.958Z,7.63
2022-08-19T22:17:27.432Z,7.63
2022-08-19T22:19:55.952Z,8.48
2022-08-19T22:22:30.672Z,7.57
2022-08-19T22:25:11.509Z,7.53
2022-08-19T22:27:39.060Z,8.25
2022-08-19T22:30:10.136Z,8.18
2022-08-19T22:32:37.382Z,8.93
2022-08-19T22:35:08.589Z,10.32
2022-08-19T22:37:35.273Z,10.02
2022-08-19T22:40:05.477Z,9.93
2022-08-19T22:42:33.282Z,9.48
2022-08-19T22:45:00.422Z,8.55
2022-08-19T22:47:28.845Z,9.63
2022-08-19T22:49:58.848Z,8.80
2022-08-19T22:52:26.651Z,10.13
2022-08-19T22:54:56.953Z,9.88
2022-08-19T22:57:24.851Z,9.63
2022-08-19T22:59:52.739Z,9.60
2022-08-19T23:02:23.663Z,9.95
2022-08-19T23:04:51.549Z,10.10
2022-08-19T23:07:23.797Z,9.88
2022-08-19T23:09:51.184Z,9.30
2022-08-19T23:12:30.700Z,9.52
2022-08-19T23:15:06.371Z,9.00
2022-08-19T23:17:33.647Z,7.90
2022-08-19T23:20:00.422Z,8.25
2022-08-19T23:22:27.335Z,8.88
2022-08-19T23:24:56.025Z,8.85
2022-08-19T23:27:41.782Z,9.73
2022-08-19T23:30:27.347Z,9.40
2022-08-19T23:33:00.979Z,9.88
2022-08-19T23:35:32.996Z,9.02
2022-08-19T23:38:01.109Z,9.20
2022-08-19T23:40:28.337Z,9.93
2022-08-19T23:42:55.203Z,9.48
2022-08-19T23:45:24.697Z,9.40
2022-08-19T23:47:53.295Z,9.25
2022-08-19T23:50:24.785Z,9.15
2022-08-19T23:52:57.800Z,9.70
2022-08-19T23:55:28.005Z,9.60
2022-08-19T23:57:55.023Z,9.60
